createdAt,value
2022-10-13T00:00:25.707Z,7.15
2022-10-13T00:02:52.246Z,7.17
2022-10-13T00:05:18.790Z,7.18
2022-10-13T00:07:45.423Z,7.21
2022-10-13T00:10:13.330Z,7.19
2022-10-13T00:12:40.032Z,7.18
2022-10-13T00:15:08.517Z,7.16
2022-10-13T00:17:35.473Z,7.15
2022-10-13T00:20:01.986Z,7.13
2022-10-13T00:22:28.555Z,7.08
2022-10-13T00:24:55.064Z,7.05
2022-10-13T00:27:23.169Z,6.98
2022-10-13T00:29:49.806Z,6.94
2022-10-13T00:32:16.724Z,6.89
2022-10-13T00:34:43.449Z,6.83
2022-10-13T00:37:09.991Z,6.78
2022-10-13T00:39:37.243Z,6.76
2022-10-13T00:42:04.722Z,6.75
2022-10-13T00:45:07.898Z,6.75
2022-10-13T00:47:40.516Z,6.77
2022-10-13T00:50:10.600Z,6.77
2022-10-13T00:52:39.118Z,6.75
2022-10-13T00:55:07.912Z,6.77
2022-10-13T00:57:36.192Z,6.76
2022-10-13T01:00:04.183Z,6.78
2022-10-13T01:02:34.917Z,6.78
2022-10-13T01:05:04.164Z,6.75
2022-10-13T01:07:31.407Z,6.76
2022-10-13T01:09:58.863Z,6.71
2022-10-13T01:12:38.143Z,6.68
2022-10-13T01:15:11.365Z,6.65
2022-10-13T01:17:48.551Z,6.61
2022-10-13T01:20:45.081Z,6.56
2022-10-13T01:23:30.425Z,6.56
2022-10-13T01:26:24.399Z,6.57
2022-10-13T01:29:16.300Z,6.61
2022-10-13T01:31:51.574Z,6.65
2022-10-13T01:34:23.222Z,6.68
2022-10-13T01:36:58.431Z,6.70
2022-10-13T01:39:31.396Z,6.73
2022-10-13T01:42:04.188Z,6.75
2022-10-13T01:44:36.755Z,6.76
2022-10-13T01:47:07.364Z,6.74
2022-10-13T01:49:36.043Z,6.75
2022-10-13T01:52:07.255Z,6.72
2022-10-13T01:54:33.910Z,6.68
2022-10-13T01:57:00.440Z,6.64
2022-10-13T01:59:29.565Z,6.63
2022-10-13T02:02:09.517Z,6.57
2022-10-13T02:04:45.622Z,6.53
2022-10-13T02:07:19.757Z,6.47
2022-10-13T02:09:55.056Z,6.39
2022-10-13T02:12:27.452Z,6.36
2022-10-13T02:14:55.516Z,6.31
2022-10-13T02:17:23.907Z,6.26
2022-10-13T02:19:50.450Z,6.18
2022-10-13T02:22:18.303Z,6.12
2022-10-13T02:24:45.064Z,6.14
2022-10-13T02:27:11.963Z,6.07
2022-10-13T02:29:50.087Z,5.98
2022-10-13T02:32:16.892Z,5.91
2022-10-13T02:34:45.118Z,5.83
2022-10-13T02:37:11.651Z,5.72
2022-10-13T02:39:38.215Z,5.63
2022-10-13T02:42:05.078Z,5.54
2022-10-13T02:44:31.680Z,5.46
2022-10-13T02:46:58.697Z,5.37
2022-10-13T02:49:25.266Z,5.29
2022-10-13T02:51:53.340Z,5.23
2022-10-13T02:54:20.225Z,5.17
2022-10-13T02:56:46.770Z,5.11
2022-10-13T02:59:13.388Z,5.08
2022-10-13T03:01:39.892Z,5.04
2022-10-13T03:04:06.670Z,5.03
2022-10-13T03:06:33.582Z,5.00
2022-10-13T03:09:02.544Z,4.96
2022-10-13T03:11:29.076Z,4.89
2022-10-13T03:13:55.621Z,4.88
2022-10-13T03:16:22.434Z,4.86
2022-10-13T03:18:49.026Z,4.85
2022-10-13T03:21:15.583Z,4.84
2022-10-13T03:23:42.094Z,4.83
2022-10-13T03:26:10.131Z,4.84
2022-10-13T03:28:36.798Z,4.82
2022-10-13T03:31:04.812Z,4.83
2022-10-13T03:33:31.488Z,4.82
2022-10-13T03:35:59.532Z,4.85
2022-10-13T03:38:26.295Z,4.83
2022-10-13T03:40:52.834Z,4.85
2022-10-13T03:43:20.699Z,4.82
2022-10-13T03:45:54.845Z,4.76
2022-10-13T03:48:21.353Z,4.73
2022-10-13T03:50:47.892Z,4.71
2022-10-13T03:53:14.524Z,4.67
2022-10-13T03:55:41.026Z,4.65
2022-10-13T03:58:07.882Z,4.67
2022-10-13T04:00:36.582Z,4.69
2022-10-13T04:03:03.088Z,4.69
2022-10-13T04:05:29.616Z,4.73
2022-10-13T04:07:56.120Z,4.74
2022-10-13T04:10:22.753Z,4.77
2022-10-13T04:12:49.285Z,4.81
2022-10-13T04:15:15.997Z,4.85
2022-10-13T04:17:43.880Z,4.90
2022-10-13T04:20:10.950Z,4.90
2022-10-13T04:22:37.509Z,4.91
2022-10-13T04:25:05.096Z,4.94
2022-10-13T04:27:31.624Z,4.93
2022-10-13T04:29:58.515Z,4.99
2022-10-13T04:32:25.036Z,4.95
2022-10-13T04:34:52.930Z,4.91
2022-10-13T04:37:19.426Z,4.85
2022-10-13T04:39:46.089Z,4.81
2022-10-13T04:42:12.588Z,4.78
2022-10-13T04:44:39.110Z,4.77
2022-10-13T04:47:05.624Z,4.78
2022-10-13T04:49:32.138Z,4.80
2022-10-13T04:52:00.047Z,4.83
2022-10-13T04:54:26.720Z,4.90
2022-10-13T04:56:53.280Z,4.96
2022-10-13T04:59:19.944Z,5.05
2022-10-13T05:01:46.453Z,5.09
2022-10-13T05:04:13.322Z,5.15
2022-10-13T05:07:05.216Z,5.22
2022-10-13T05:09:30.040Z,5.37
2022-10-13T05:11:56.571Z,5.54
2022-10-13T05:14:23.481Z,5.57
2022-10-13T05:16:50.069Z,5.59
2022-10-13T05:19:16.592Z,5.58
2022-10-13T05:21:43.212Z,5.59
2022-10-13T05:24:09.716Z,5.65
2022-10-13T05:26:37.658Z,5.74
2022-10-13T05:29:04.300Z,5.71
2022-10-13T05:31:32.360Z,5.79
2022-10-13T05:33:59.426Z,5.99
2022-10-13T05:36:27.469Z,6.05
2022-10-13T05:38:56.371Z,5.99
2022-10-13T05:41:24.127Z,5.96
2022-10-13T05:43:54.844Z,5.90
2022-10-13T05:46:21.358Z,5.89
2022-10-13T05:48:47.863Z,5.87
2022-10-13T05:51:17.223Z,5.88
2022-10-13T05:53:51.110Z,5.86
2022-10-13T05:56:25.950Z,5.86
2022-10-13T05:58:58.374Z,5.89
2022-10-13T06:01:28.068Z,5.87
2022-10-13T06:03:59.059Z,5.87
2022-10-13T06:06:29.131Z,5.90
2022-10-13T06:08:58.401Z,5.93
2022-10-13T06:11:24.938Z,5.98
2022-10-13T06:13:51.460Z,6.00
2022-10-13T06:16:19.309Z,6.02
2022-10-13T06:18:45.941Z,6.05
2022-10-13T06:21:12.612Z,6.05
2022-10-13T06:23:39.192Z,6.07
2022-10-13T06:26:07.238Z,6.12
2022-10-13T06:28:33.809Z,6.15
2022-10-13T06:31:00.448Z,6.19
2022-10-13T06:33:28.326Z,6.26
2022-10-13T06:35:54.827Z,6.31
2022-10-13T06:38:21.370Z,6.39
2022-10-13T06:40:48.074Z,6.43
2022-10-13T06:43:14.715Z,6.49
2022-10-13T06:45:41.281Z,6.54
2022-10-13T06:48:07.948Z,6.62
2022-10-13T06:50:40.687Z,6.67
2022-10-13T06:53:09.278Z,6.75
2022-10-13T06:55:35.898Z,6.78
2022-10-13T06:58:02.454Z,6.89
2022-10-13T07:00:29.082Z,7.13
2022-10-13T07:02:55.602Z,7.34
2022-10-13T07:05:22.254Z,7.44
2022-10-13T07:07:51.785Z,7.53
2022-10-13T07:10:18.527Z,7.63
2022-10-13T07:12:45.163Z,7.76
2022-10-13T07:15:11.719Z,7.84
2022-10-13T07:17:38.260Z,7.92
2022-10-13T07:20:07.381Z,7.98
2022-10-13T07:22:34.242Z,8.05
2022-10-13T07:25:02.117Z,8.02
2022-10-13T07:27:28.792Z,8.06
2022-10-13T07:29:55.482Z,8.10
2022-10-13T07:32:22.002Z,8.20
2022-10-13T07:34:52.169Z,8.27
2022-10-13T07:37:19.026Z,8.33
2022-10-13T07:39:45.712Z,8.38
2022-10-13T07:42:13.603Z,8.53
2022-10-13T07:44:40.245Z,8.65
2022-10-13T07:47:06.746Z,8.75
2022-10-13T07:49:33.290Z,8.90
2022-10-13T07:52:00.191Z,9.02
2022-10-13T07:54:27.817Z,9.06
2022-10-13T07:56:56.022Z,9.13
2022-10-13T07:59:24.267Z,9.22
2022-10-13T08:01:51.400Z,9.33
2022-10-13T08:04:18.210Z,9.29
2022-10-13T08:06:44.906Z,9.36
2022-10-13T08:09:11.553Z,9.48
2022-10-13T08:11:38.647Z,9.62
2022-10-13T08:14:05.199Z,9.63
2022-10-13T08:16:33.181Z,9.68
2022-10-13T08:18:59.723Z,9.64
2022-10-13T08:21:53.389Z,9.72
2022-10-13T08:24:16.424Z,9.80
2022-10-13T08:26:44.324Z,9.86
2022-10-13T08:29:27.021Z,9.87
2022-10-13T08:31:55.769Z,9.85
2022-10-13T08:34:23.327Z,9.96
2022-10-13T08:36:49.944Z,10.02
2022-10-13T08:39:16.437Z,10.10
2022-10-13T08:41:44.105Z,10.15
2022-10-13T08:47:14.857Z,10.19
2022-10-13T08:49:43.097Z,10.29
2022-10-13T08:52:16.418Z,10.33
2022-10-13T08:54:43.130Z,10.50
2022-10-13T08:57:10.805Z,10.62
2022-10-13T08:59:37.377Z,10.74
2022-10-13T09:02:11.744Z,10.80
2022-10-13T09:04:41.266Z,10.82
2022-10-13T09:07:14.377Z,10.97
2022-10-13T09:09:41.120Z,11.14
2022-10-13T09:12:10.057Z,11.23
2022-10-13T09:14:39.855Z,11.54
2022-10-13T09:17:17.274Z,11.81
2022-10-13T09:19:44.962Z,11.83
2022-10-13T09:22:21.810Z,11.97
2022-10-13T09:25:04.396Z,11.67
2022-10-13T09:27:42.408Z,11.79
2022-10-13T09:30:25.608Z,11.55
2022-10-13T09:33:00.920Z,11.46
2022-10-13T09:35:27.434Z,11.31
2022-10-13T09:38:03.005Z,11.33
2022-10-13T09:40:29.701Z,11.41
2022-10-13T09:42:57.013Z,11.47
2022-10-13T09:45:25.408Z,11.56
2022-10-13T09:47:55.604Z,11.54
2022-10-13T09:50:25.036Z,11.62
2022-10-13T09:52:52.143Z,11.73
2022-10-13T09:55:32.327Z,11.92
2022-10-13T09:58:05.706Z,12.18
2022-10-13T10:00:32.983Z,11.93
2022-10-13T10:03:05.463Z,12.09
2022-10-13T10:05:41.977Z,12.20
2022-10-13T10:08:15.700Z,12.25
2022-10-13T10:10:42.506Z,12.38
2022-10-13T10:13:11.368Z,12.70
2022-10-13T10:15:47.605Z,12.98
2022-10-13T10:18:21.089Z,13.03
2022-10-13T10:20:59.833Z,12.99
2022-10-13T10:23:37.862Z,13.30
2022-10-13T10:26:09.605Z,14.01
2022-10-13T10:29:04.856Z,14.26
2022-10-13T10:31:44.129Z,14.20
2022-10-13T10:34:30.854Z,14.19
2022-10-13T10:37:10.934Z,13.73
2022-10-13T10:39:46.489Z,13.68
2022-10-13T10:42:37.755Z,13.51
2022-10-13T10:45:16.054Z,13.35
2022-10-13T10:47:45.915Z,13.31
2022-10-13T10:50:17.394Z,13.18
2022-10-13T10:52:53.738Z,13.08
2022-10-13T10:55:27.264Z,13.15
2022-10-13T10:58:03.712Z,13.17
2022-10-13T11:00:39.076Z,13.23
2022-10-13T11:03:13.364Z,13.07
2022-10-13T11:06:01.780Z,12.96
2022-10-13T11:08:30.632Z,12.91
2022-10-13T11:11:34.823Z,12.97
2022-10-13T11:14:24.904Z,12.98
2022-10-13T11:17:19.669Z,13.85
2022-10-13T11:19:47.731Z,14.41
2022-10-13T11:22:18.292Z,14.98
2022-10-13T11:24:48.739Z,15.63
2022-10-13T11:27:38.523Z,16.09
2022-10-13T11:30:26.612Z,15.74
2022-10-13T11:32:53.258Z,15.58
2022-10-13T11:35:23.026Z,15.78
2022-10-13T11:38:08.420Z,15.76
2022-10-13T11:40:44.797Z,15.33
2022-10-13T11:43:32.053Z,15.10
2022-10-13T11:46:24.314Z,14.96
2022-10-13T11:49:05.204Z,14.71
2022-10-13T11:51:48.543Z,14.55
2022-10-13T11:54:25.494Z,14.49
2022-10-13T11:56:53.967Z,14.46
2022-10-13T11:59:23.945Z,14.63
2022-10-13T12:01:53.941Z,15.21
2022-10-13T12:04:22.857Z,15.20
2022-10-13T12:06:55.667Z,15.13
2022-10-13T12:09:24.207Z,14.86
2022-10-13T12:11:57.291Z,14.54
2022-10-13T12:14:29.595Z,14.52
2022-10-13T12:16:58.172Z,14.21
2022-10-13T12:19:27.202Z,13.95
2022-10-13T12:21:55.756Z,13.91
2022-10-13T12:24:25.064Z,13.98
2022-10-13T12:26:51.893Z,13.94
2022-10-13T12:29:21.245Z,13.94
2022-10-13T12:31:50.705Z,13.90
2022-10-13T12:34:20.679Z,13.68
2022-10-13T12:36:54.398Z,13.49
2022-10-13T12:39:21.415Z,13.43
2022-10-13T12:41:49.591Z,13.28
2022-10-13T12:44:19.949Z,13.32
2022-10-13T12:46:48.783Z,13.19
2022-10-13T12:49:17.129Z,13.13
2022-10-13T12:51:46.958Z,13.09
2022-10-13T12:54:19.761Z,13.05
2022-10-13T12:56:46.956Z,13.04
2022-10-13T12:59:17.760Z,13.10
2022-10-13T13:01:45.586Z,13.10
2022-10-13T13:04:28.109Z,13.16
2022-10-13T13:06:56.713Z,13.28
2022-10-13T13:09:28.276Z,13.32
2022-10-13T13:12:21.261Z,13.24
2022-10-13T13:14:50.612Z,13.14
2022-10-13T13:17:57.404Z,13.22
2022-10-13T13:20:25.686Z,13.35
2022-10-13T13:22:52.243Z,13.31
2022-10-13T13:25:18.899Z,13.28
2022-10-13T13:27:45.406Z,13.34
2022-10-13T13:30:15.408Z,13.45
2022-10-13T13:32:41.930Z,13.41
2022-10-13T13:35:09.598Z,13.47
2022-10-13T13:37:38.946Z,13.39
2022-10-13T13:40:07.254Z,13.36
2022-10-13T13:42:33.827Z,13.32
2022-10-13T13:45:00.307Z,13.48
2022-10-13T13:47:28.697Z,13.52
2022-10-13T13:49:56.684Z,13.63
2022-10-13T13:52:24.221Z,13.63
2022-10-13T13:54:51.451Z,13.62
2022-10-13T13:57:19.078Z,13.61
2022-10-13T13:59:46.004Z,13.49
2022-10-13T14:02:14.499Z,13.37
2022-10-13T14:04:42.970Z,13.24
2022-10-13T14:07:09.552Z,13.16
2022-10-13T14:09:36.213Z,13.10
2022-10-13T14:12:02.911Z,13.01
2022-10-13T14:14:30.453Z,12.88
2022-10-13T14:16:56.960Z,12.86
2022-10-13T14:19:23.568Z,12.80
2022-10-13T14:21:51.458Z,12.82
2022-10-13T14:24:18.234Z,12.82
2022-10-13T14:26:44.773Z,12.89
2022-10-13T14:29:11.391Z,12.97
2022-10-13T14:31:37.992Z,13.00
2022-10-13T14:34:04.487Z,12.95
2022-10-13T14:36:31.172Z,12.92
2022-10-13T14:38:59.171Z,12.94
2022-10-13T14:41:25.839Z,12.97
2022-10-13T14:43:52.868Z,12.98
2022-10-13T14:46:19.363Z,12.96
2022-10-13T14:48:45.899Z,12.92
2022-10-13T14:51:12.764Z,12.86
2022-10-13T14:53:41.038Z,12.87
2022-10-13T14:56:17.835Z,12.89
2022-10-13T14:58:44.645Z,12.86
2022-10-13T15:01:11.173Z,12.84
2022-10-13T15:03:37.693Z,12.72
2022-10-13T15:06:04.491Z,12.71
2022-10-13T15:08:31.036Z,12.67
2022-10-13T15:11:00.772Z,12.65
2022-10-13T15:13:29.184Z,12.59
2022-10-13T15:15:57.796Z,12.61
2022-10-13T15:18:28.972Z,12.54
2022-10-13T15:20:56.077Z,12.54
2022-10-13T15:23:23.071Z,12.53
2022-10-13T15:25:50.796Z,12.51
2022-10-13T15:28:17.419Z,12.51
2022-10-13T15:30:45.602Z,12.48
2022-10-13T15:33:12.250Z,12.44
2022-10-13T15:35:38.897Z,12.43
2022-10-13T15:38:05.475Z,12.43
2022-10-13T15:40:32.217Z,12.41
2022-10-13T15:42:58.769Z,12.39
2022-10-13T15:45:25.701Z,12.37
2022-10-13T15:47:53.623Z,12.34
2022-10-13T15:50:20.131Z,12.28
2022-10-13T15:52:46.712Z,12.22
2022-10-13T15:55:13.256Z,12.19
2022-10-13T15:57:39.774Z,12.19
2022-10-13T16:00:08.260Z,12.16
2022-10-13T16:02:34.815Z,12.10
2022-10-13T16:05:02.731Z,12.08
2022-10-13T16:07:29.262Z,12.00
2022-10-13T16:09:55.888Z,11.99
2022-10-13T16:12:22.597Z,11.90
2022-10-13T16:14:49.380Z,11.86
2022-10-13T16:17:15.870Z,11.81
2022-10-13T16:19:42.387Z,11.74
2022-10-13T16:22:10.275Z,11.67
2022-10-13T16:24:37.063Z,11.61
2022-10-13T16:27:03.701Z,11.57
2022-10-13T16:29:30.417Z,11.49
2022-10-13T16:31:57.061Z,11.48
2022-10-13T16:34:23.635Z,11.45
2022-10-13T16:36:50.171Z,11.35
2022-10-13T16:39:18.199Z,11.29
2022-10-13T16:41:44.760Z,11.19
2022-10-13T16:44:11.363Z,11.18
2022-10-13T16:46:37.910Z,11.11
2022-10-13T16:49:04.452Z,11.11
2022-10-13T16:51:31.075Z,11.09
2022-10-13T16:54:02.943Z,11.05
2022-10-13T16:56:32.709Z,11.02
2022-10-13T16:59:01.330Z,11.00
2022-10-13T17:01:28.550Z,10.98
2022-10-13T17:03:55.331Z,10.95
2022-10-13T17:06:24.055Z,10.91
2022-10-13T17:08:50.626Z,10.87
2022-10-13T17:11:19.383Z,10.85
2022-10-13T17:13:47.767Z,10.80
2022-10-13T17:16:14.566Z,10.76
2022-10-13T17:18:41.201Z,10.75
2022-10-13T17:21:09.960Z,10.71
2022-10-13T17:23:37.389Z,10.69
2022-10-13T17:26:06.336Z,10.65
2022-10-13T17:28:33.076Z,10.62
2022-10-13T17:31:03.056Z,10.61
2022-10-13T17:33:31.956Z,10.59
2022-10-13T17:36:00.141Z,10.57
2022-10-13T17:38:26.684Z,10.58
2022-10-13T17:40:58.800Z,10.53
2022-10-13T17:43:26.363Z,10.51
2022-10-13T17:45:52.957Z,10.49
2022-10-13T17:48:23.088Z,10.47
2022-10-13T17:50:49.822Z,10.46
2022-10-13T17:53:16.332Z,10.45
2022-10-13T17:55:43.167Z,10.45
2022-10-13T17:58:09.717Z,10.45
2022-10-13T18:01:00.649Z,10.46
2022-10-13T18:03:25.142Z,10.43
2022-10-13T18:05:51.944Z,10.42
2022-10-13T18:08:18.657Z,10.42
2022-10-13T18:11:07.073Z,10.39
2022-10-13T18:13:32.016Z,10.38
2022-10-13T18:16:02.793Z,10.38
2022-10-13T18:18:30.907Z,10.36
2022-10-13T18:20:57.449Z,10.35
2022-10-13T18:23:24.094Z,10.32
2022-10-13T18:25:50.659Z,10.30
2022-10-13T18:28:17.250Z,10.28
2022-10-13T18:30:43.905Z,10.29
2022-10-13T18:33:10.437Z,10.26
2022-10-13T18:35:38.441Z,10.24
2022-10-13T18:38:04.933Z,10.24
2022-10-13T18:40:31.558Z,10.24
2022-10-13T18:42:58.065Z,10.22
2022-10-13T18:45:24.574Z,10.22
2022-10-13T18:47:51.175Z,10.20
2022-10-13T18:50:17.772Z,10.18
2022-10-13T18:52:46.262Z,10.16
2022-10-13T18:55:12.770Z,10.14
2022-10-13T18:57:39.307Z,10.14
2022-10-13T19:00:10.137Z,10.11
2022-10-13T19:02:36.637Z,10.12
2022-10-13T19:05:03.242Z,10.12
2022-10-13T19:07:29.767Z,10.14
2022-10-13T19:09:57.616Z,10.15
2022-10-13T19:12:24.184Z,10.15
2022-10-13T19:14:50.718Z,10.17
2022-10-13T19:17:17.227Z,10.20
2022-10-13T19:19:43.781Z,10.24
2022-10-13T19:22:10.406Z,10.25
2022-10-13T19:24:36.918Z,10.26
2022-10-13T19:27:04.874Z,10.23
2022-10-13T19:29:31.426Z,10.22
2022-10-13T19:31:57.991Z,10.20
2022-10-13T19:34:24.602Z,10.15
2022-10-13T19:36:51.145Z,10.12
2022-10-13T19:39:20.617Z,10.11
2022-10-13T19:41:48.297Z,10.10
2022-10-13T19:44:18.189Z,10.06
2022-10-13T19:46:46.630Z,10.04
2022-10-13T19:49:16.018Z,10.01
2022-10-13T19:51:42.560Z,10.00
2022-10-13T19:54:10.153Z,9.99
2022-10-13T19:56:36.878Z,9.96
2022-10-13T19:59:03.919Z,9.95
2022-10-13T20:01:32.021Z,9.97
2022-10-13T20:03:58.700Z,9.94
2022-10-13T20:06:25.224Z,9.92
2022-10-13T20:08:51.737Z,9.91
2022-10-13T20:11:23.771Z,9.90
2022-10-13T20:13:52.258Z,9.93
2022-10-13T20:16:22.202Z,9.92
2022-10-13T20:18:53.200Z,9.89
2022-10-13T20:21:19.957Z,9.88
2022-10-13T20:23:46.620Z,9.86
2022-10-13T20:26:13.509Z,9.82
2022-10-13T20:28:43.004Z,9.82
2022-10-13T20:31:10.273Z,9.84
2022-10-13T20:33:36.797Z,9.86
2022-10-13T20:36:06.976Z,9.92
2022-10-13T20:38:35.013Z,9.97
2022-10-13T20:41:05.795Z,10.01
2022-10-13T20:43:32.584Z,10.02
2022-10-13T20:46:00.506Z,10.10
2022-10-13T20:48:36.757Z,10.12
2022-10-13T20:51:19.291Z,10.12
2022-10-13T20:53:46.834Z,10.15
2022-10-13T20:56:15.080Z,10.17
2022-10-13T20:58:42.087Z,10.16
2022-10-13T21:01:08.953Z,10.16
2022-10-13T21:03:35.688Z,10.15
2022-10-13T21:06:03.961Z,10.12
2022-10-13T21:08:31.906Z,10.14
2022-10-13T21:11:03.175Z,10.13
2022-10-13T21:13:29.773Z,10.10
2022-10-13T21:15:56.302Z,10.08
2022-10-13T21:18:22.855Z,10.09
2022-10-13T21:20:49.380Z,10.11
2022-10-13T21:23:15.930Z,10.14
2022-10-13T21:25:43.794Z,10.17
2022-10-13T21:28:10.322Z,10.16
2022-10-13T21:30:36.837Z,10.20
2022-10-13T21:33:03.417Z,10.24
2022-10-13T21:35:29.924Z,10.25
2022-10-13T21:37:56.449Z,10.25
2022-10-13T21:40:23.101Z,10.25
2022-10-13T21:42:50.980Z,10.26
2022-10-13T21:45:17.676Z,10.29
2022-10-13T21:47:44.334Z,10.37
2022-10-13T21:50:10.976Z,10.41
2022-10-13T21:52:37.563Z,10.40
2022-10-13T21:55:05.083Z,10.37
2022-10-13T21:57:31.607Z,10.36
2022-10-13T21:59:59.568Z,10.38
2022-10-13T22:02:26.099Z,10.36
2022-10-13T22:04:52.635Z,10.32
2022-10-13T22:07:19.408Z,10.27
2022-10-13T22:09:46.255Z,10.32
2022-10-13T22:12:12.743Z,10.30
2022-10-13T22:14:39.261Z,10.35
2022-10-13T22:17:07.127Z,10.37
2022-10-13T22:19:33.743Z,10.35
2022-10-13T22:22:00.263Z,10.35
2022-10-13T22:24:26.793Z,10.34
2022-10-13T22:26:53.309Z,10.30
2022-10-13T22:29:21.587Z,10.28
2022-10-13T22:31:48.912Z,10.25
2022-10-13T22:34:17.480Z,10.22
2022-10-13T22:36:45.253Z,10.21
2022-10-13T22:39:12.809Z,10.19
2022-10-13T22:41:39.322Z,10.18
2022-10-13T22:44:05.869Z,10.18
2022-10-13T22:46:34.407Z,10.22
2022-10-13T22:49:01.445Z,10.23
2022-10-13T22:51:31.363Z,10.24
2022-10-13T22:53:58.515Z,10.29
2022-10-13T22:56:27.114Z,10.31
2022-10-13T22:58:56.434Z,10.31
2022-10-13T23:01:24.127Z,10.32
2022-10-13T23:03:52.710Z,10.32
2022-10-13T23:06:21.889Z,10.35
2022-10-13T23:08:49.924Z,10.37
2022-10-13T23:11:17.147Z,10.38
2022-10-13T23:13:43.910Z,10.41
2022-10-13T23:16:12.218Z,10.44
2022-10-13T23:18:39.133Z,10.45
2022-10-13T23:21:05.928Z,10.48
2022-10-13T23:23:32.571Z,10.46
2022-10-13T23:26:03.479Z,10.47
2022-10-13T23:28:30.766Z,10.48
2022-10-13T23:30:59.531Z,10.47
2022-10-13T23:33:26.053Z,10.50
2022-10-13T23:35:55.801Z,10.49
2022-10-13T23:38:22.787Z,10.48
2022-10-13T23:40:49.638Z,10.51
2022-10-13T23:43:17.729Z,10.51
2022-10-13T23:45:44.523Z,10.53
2022-10-13T23:48:11.161Z,10.53
2022-10-13T23:50:37.696Z,10.51
2022-10-13T23:53:04.432Z,10.49
2022-10-13T23:55:31.051Z,10.50
2022-10-13T23:57:57.537Z,10.48
